sensor_id;sensor_type;location;lat;lon;timestamp;pressure;altitude;pressure_sealevel;temperature;humidity
6433;BME280;3249;42.690;23.260;2022-09-09T00:07:15;94680.75;;;16.80;100.00
6433;BME280;3249;42.690;23.260;2022-09-09T00:09:51;94677.81;;;16.98;100.00
6433;BME280;3249;42.690;23.260;2022-09-09T00:15:03;94663.03;;;16.77;100.00
6433;BME280;3249;42.690;23.260;2022-09-09T00:17:43;94676.38;;;17.07;100.00
6433;BME280;3249;42.690;23.260;2022-09-09T00:28:43;94637.38;;;16.38;100.00
6433;BME280;3249;42.690;23.260;2022-09-09T00:31:15;94641.47;;;16.12;100.00
6433;BME280;3249;42.690;23.260;2022-09-09T00:33:42;94644.19;;;16.22;100.00
6433;BME280;3249;42.690;23.260;2022-09-09T00:36:17;94618.53;;;16.26;100.00
6433;BME280;3249;42.690;23.260;2022-09-09T00:38:49;94636.88;;;16.41;100.00
6433;BME280;3249;42.690;23.260;2022-09-09T00:41:33;94636.38;;;16.22;100.00
6433;BME280;3249;42.690;23.260;2022-09-09T00:44:30;94636.94;;;16.24;100.00
6433;BME280;3249;42.690;23.260;2022-09-09T00:50:01;94638.13;;;16.38;100.00
6433;BME280;3249;42.690;23.260;2022-09-09T00:52:36;94634.16;;;16.31;100.00
6433;BME280;3249;42.690;23.260;2022-09-09T00:57:52;94633.03;;;16.43;100.00
6433;BME280;3249;42.690;23.260;2022-09-09T01:00:27;94623.53;;;16.11;100.00
6433;BME280;3249;42.690;23.260;2022-09-09T01:03:13;94644.69;;;16.19;100.00
6433;BME280;3249;42.690;23.260;2022-09-09T01:11:37;94635.69;;;15.89;100.00
6433;BME280;3249;42.690;23.260;2022-09-09T01:14:27;94613.59;;;15.86;100.00
6433;BME280;3249;42.690;23.260;2022-09-09T01:16:59;94643.31;;;16.17;100.00
6433;BME280;3249;42.690;23.260;2022-09-09T01:19:42;94641.66;;;16.06;100.00
6433;BME280;3249;42.690;23.260;2022-09-09T01:25:20;94640.50;;;16.40;100.00
6433;BME280;3249;42.690;23.260;2022-09-09T01:27:51;94638.22;;;16.22;100.00
6433;BME280;3249;42.690;23.260;2022-09-09T01:30:19;94635.50;;;15.95;100.00
6433;BME280;3249;42.690;23.260;2022-09-09T01:32:47;94639.06;;;16.27;100.00
6433;BME280;3249;42.690;23.260;2022-09-09T01:38:17;94649.88;;;16.41;100.00
6433;BME280;3249;42.690;23.260;2022-09-09T01:40:43;94653.19;;;16.36;100.00
6433;BME280;3249;42.690;23.260;2022-09-09T01:43:09;94642.31;;;16.39;100.00
6433;BME280;3249;42.690;23.260;2022-09-09T01:45:35;94655.88;;;16.41;100.00
6433;BME280;3249;42.690;23.260;2022-09-09T01:48:01;94609.47;;;15.90;100.00
6433;BME280;3249;42.690;23.260;2022-09-09T01:50:28;94652.09;;;16.32;100.00
6433;BME280;3249;42.690;23.260;2022-09-09T01:52:57;94655.50;;;15.95;100.00
6433;BME280;3249;42.690;23.260;2022-09-09T01:55:30;94660.88;;;15.88;100.00
6433;BME280;3249;42.690;23.260;2022-09-09T01:58:50;94656.44;;;16.05;100.00
6433;BME280;3249;42.690;23.260;2022-09-09T02:00:59;94654.03;;;15.82;100.00
6433;BME280;3249;42.690;23.260;2022-09-09T02:03:28;94637.94;;;15.64;100.00
6433;BME280;3249;42.690;23.260;2022-09-09T02:13:36;94620.75;;;15.79;100.00
6433;BME280;3249;42.690;23.260;2022-09-09T02:16:21;94639.47;;;15.98;100.00
6433;BME280;3249;42.690;23.260;2022-09-09T02:18:53;94641.97;;;15.93;100.00
6433;BME280;3249;42.690;23.260;2022-09-09T02:21:22;94624.91;;;15.42;100.00
6433;BME280;3249;42.690;23.260;2022-09-09T02:23:50;94614.81;;;15.29;100.00
6433;BME280;3249;42.690;23.260;2022-09-09T02:26:19;94637.19;;;15.47;100.00
6433;BME280;3249;42.690;23.260;2022-09-09T02:28:49;94644.94;;;15.63;100.00
6433;BME280;3249;42.690;23.260;2022-09-09T02:31:17;94640.31;;;15.65;100.00
6433;BME280;3249;42.690;23.260;2022-09-09T02:33:48;94648.78;;;15.77;100.00
6433;BME280;3249;42.690;23.260;2022-09-09T02:36:16;94624.84;;;15.75;100.00
6433;BME280;3249;42.690;23.260;2022-09-09T02:38:46;94646.88;;;15.89;100.00
6433;BME280;3249;42.690;23.260;2022-09-09T02:41:18;94654.72;;;15.94;100.00
6433;BME280;3249;42.690;23.260;2022-09-09T02:43:45;94655.69;;;15.88;100.00
6433;BME280;3249;42.690;23.260;2022-09-09T02:49:30;94650.31;;;15.40;100.00
6433;BME280;3249;42.690;23.260;2022-09-09T02:52:05;94650.03;;;15.25;100.00
6433;BME280;3249;42.690;23.260;2022-09-09T02:54:34;94645.03;;;15.35;100.00
6433;BME280;3249;42.690;23.260;2022-09-09T02:57:23;94647.50;;;15.30;100.00
6433;BME280;3249;42.690;23.260;2022-09-09T02:59:51;94625.97;;;15.13;100.00
6433;BME280;3249;42.690;23.260;2022-09-09T03:02:17;94653.41;;;15.26;100.00
6433;BME280;3249;42.690;23.260;2022-09-09T03:04:44;94646.53;;;15.03;100.00
6433;BME280;3249;42.690;23.260;2022-09-09T03:07:12;94649.63;;;15.00;100.00
6433;BME280;3249;42.690;23.260;2022-09-09T03:09:38;94635.50;;;14.80;100.00
6433;BME280;3249;42.690;23.260;2022-09-09T03:12:03;94647.63;;;14.91;100.00
6433;BME280;3249;42.690;23.260;2022-09-09T03:14:30;94649.13;;;15.03;100.00
6433;BME280;3249;42.690;23.260;2022-09-09T03:16:56;94655.03;;;15.15;100.00
6433;BME280;3249;42.690;23.260;2022-09-09T03:19:23;94636.25;;;15.25;100.00
6433;BME280;3249;42.690;23.260;2022-09-09T03:21:49;94651.25;;;15.51;100.00
6433;BME280;3249;42.690;23.260;2022-09-09T03:24:15;94651.31;;;15.56;100.00
6433;BME280;3249;42.690;23.260;2022-09-09T03:26:41;94642.84;;;15.60;100.00
6433;BME280;3249;42.690;23.260;2022-09-09T03:29:10;94647.28;;;15.65;100.00
6433;BME280;3249;42.690;23.260;2022-09-09T03:31:37;94642.66;;;15.50;100.00
6433;BME280;3249;42.690;23.260;2022-09-09T03:34:03;94645.34;;;15.39;100.00
6433;BME280;3249;42.690;23.260;2022-09-09T03:36:29;94620.34;;;15.16;100.00
6433;BME280;3249;42.690;23.260;2022-09-09T03:38:54;94639.44;;;15.27;100.00
6433;BME280;3249;42.690;23.260;2022-09-09T03:41:21;94638.56;;;15.21;100.00
6433;BME280;3249;42.690;23.260;2022-09-09T03:43:52;94621.25;;;15.10;100.00
6433;BME280;3249;42.690;23.260;2022-09-09T03:46:19;94616.03;;;14.94;100.00
6433;BME280;3249;42.690;23.260;2022-09-09T03:48:44;94641.13;;;14.88;100.00
6433;BME280;3249;42.690;23.260;2022-09-09T03:51:10;94631.84;;;14.92;100.00
6433;BME280;3249;42.690;23.260;2022-09-09T03:53:35;94656.25;;;15.24;100.00
6433;BME280;3249;42.690;23.260;2022-09-09T03:56:04;94651.31;;;15.39;100.00
6433;BME280;3249;42.690;23.260;2022-09-09T03:58:32;94643.56;;;15.11;100.00
6433;BME280;3249;42.690;23.260;2022-09-09T04:01:00;94638.59;;;14.93;100.00
6433;BME280;3249;42.690;23.260;2022-09-09T04:03:26;94652.22;;;15.00;100.00
6433;BME280;3249;42.690;23.260;2022-09-09T04:05:52;94633.69;;;15.08;100.00
6433;BME280;3249;42.690;23.260;2022-09-09T04:08:19;94653.97;;;15.28;100.00
6433;BME280;3249;42.690;23.260;2022-09-09T04:10:48;94647.72;;;15.40;100.00
6433;BME280;3249;42.690;23.260;2022-09-09T04:13:15;94653.81;;;15.34;100.00
6433;BME280;3249;42.690;23.260;2022-09-09T04:15:42;94659.38;;;15.26;100.00
6433;BME280;3249;42.690;23.260;2022-09-09T04:18:07;94652.38;;;15.10;100.00
6433;BME280;3249;42.690;23.260;2022-09-09T04:20:33;94649.16;;;15.20;100.00
6433;BME280;3249;42.690;23.260;2022-09-09T04:22:59;94626.47;;;15.27;100.00
6433;BME280;3249;42.690;23.260;2022-09-09T04:25:25;94644.22;;;15.51;100.00
6433;BME280;3249;42.690;23.260;2022-09-09T04:27:57;94651.19;;;15.18;100.00
6433;BME280;3249;42.690;23.260;2022-09-09T04:30:24;94668.13;;;15.20;100.00
6433;BME280;3249;42.690;23.260;2022-09-09T04:32:50;94661.69;;;15.56;100.00
6433;BME280;3249;42.690;23.260;2022-09-09T04:35:15;94632.75;;;15.47;100.00
6433;BME280;3249;42.690;23.260;2022-09-09T04:37:41;94663.09;;;15.80;100.00
6433;BME280;3249;42.690;23.260;2022-09-09T04:40:07;94666.25;;;15.82;100.00
6433;BME280;3249;42.690;23.260;2022-09-09T04:42:38;94658.34;;;15.93;100.00
6433;BME280;3249;42.690;23.260;2022-09-09T04:45:05;94663.81;;;16.13;100.00
6433;BME280;3249;42.690;23.260;2022-09-09T04:47:32;94660.31;;;16.24;100.00
6433;BME280;3249;42.690;23.260;2022-09-09T04:49:58;94659.34;;;16.30;100.00
6433;BME280;3249;42.690;23.260;2022-09-09T04:52:23;94646.13;;;16.32;100.00
6433;BME280;3249;42.690;23.260;2022-09-09T04:54:49;94645.56;;;16.08;100.00
6433;BME280;3249;42.690;23.260;2022-09-09T04:57:14;94652.75;;;16.01;100.00
6433;BME280;3249;42.690;23.260;2022-09-09T04:59:39;94656.38;;;16.00;100.00
6433;BME280;3249;42.690;23.260;2022-09-09T05:02:05;94658.78;;;16.07;100.00
6433;BME280;3249;42.690;23.260;2022-09-09T05:04:31;94644.13;;;16.17;100.00
6433;BME280;3249;42.690;23.260;2022-09-09T05:06:56;94634.06;;;16.42;100.00
6433;BME280;3249;42.690;23.260;2022-09-09T05:09:22;94621.88;;;16.69;100.00
6433;BME280;3249;42.690;23.260;2022-09-09T05:11:47;94635.53;;;16.81;100.00
6433;BME280;3249;42.690;23.260;2022-09-09T05:14:13;94643.88;;;16.83;100.00
6433;BME280;3249;42.690;23.260;2022-09-09T05:16:39;94644.13;;;16.82;100.00
6433;BME280;3249;42.690;23.260;2022-09-09T05:19:05;94633.72;;;16.82;100.00
6433;BME280;3249;42.690;23.260;2022-09-09T05:21:33;94633.34;;;17.00;100.00
6433;BME280;3249;42.690;23.260;2022-09-09T05:23:58;94632.81;;;17.24;100.00
6433;BME280;3249;42.690;23.260;2022-09-09T05:26:25;94644.47;;;17.48;100.00
6433;BME280;3249;42.690;23.260;2022-09-09T05:28:51;94651.16;;;17.39;100.00
6433;BME280;3249;42.690;23.260;2022-09-09T05:31:18;94649.59;;;17.38;100.00
6433;BME280;3249;42.690;23.260;2022-09-09T05:33:45;94632.06;;;17.29;100.00
6433;BME280;3249;42.690;23.260;2022-09-09T05:36:16;94643.94;;;17.46;100.00
6433;BME280;3249;42.690;23.260;2022-09-09T05:38:42;94651.00;;;17.51;100.00
6433;BME280;3249;42.690;23.260;2022-09-09T05:41:09;94653.28;;;17.79;100.00
6433;BME280;3249;42.690;23.260;2022-09-09T05:43:36;94638.50;;;17.89;100.00
6433;BME280;3249;42.690;23.260;2022-09-09T05:46:07;94660.44;;;17.98;100.00
6433;BME280;3249;42.690;23.260;2022-09-09T05:48:38;94672.06;;;18.28;100.00
6433;BME280;3249;42.690;23.260;2022-09-09T05:51:05;94669.59;;;18.58;100.00
6433;BME280;3249;42.690;23.260;2022-09-09T05:53:34;94666.47;;;18.56;100.00
6433;BME280;3249;42.690;23.260;2022-09-09T05:56:01;94671.31;;;18.32;100.00
6433;BME280;3249;42.690;23.260;2022-09-09T05:58:32;94671.78;;;18.24;100.00
6433;BME280;3249;42.690;23.260;2022-09-09T06:01:18;94669.13;;;18.66;100.00
6433;BME280;3249;42.690;23.260;2022-09-09T06:03:45;94678.59;;;18.97;100.00
6433;BME280;3249;42.690;23.260;2022-09-09T06:06:13;94688.84;;;19.23;100.00
6433;BME280;3249;42.690;23.260;2022-09-09T06:08:41;94688.63;;;19.35;100.00
6433;BME280;3249;42.690;23.260;2022-09-09T06:11:20;94680.69;;;18.95;100.00
6433;BME280;3249;42.690;23.260;2022-09-09T06:13:46;94684.97;;;19.26;100.00
6433;BME280;3249;42.690;23.260;2022-09-09T06:16:15;94680.56;;;19.51;100.00
6433;BME280;3249;42.690;23.260;2022-09-09T06:18:41;94680.28;;;19.63;100.00
6433;BME280;3249;42.690;23.260;2022-09-09T06:21:14;94684.97;;;19.86;100.00
6433;BME280;3249;42.690;23.260;2022-09-09T06:23:40;94692.28;;;19.94;100.00
6433;BME280;3249;42.690;23.260;2022-09-09T06:26:09;94677.16;;;19.51;100.00
6433;BME280;3249;42.690;23.260;2022-09-09T06:28:36;94691.75;;;19.37;100.00
6433;BME280;3249;42.690;23.260;2022-09-09T06:31:04;94693.88;;;19.75;100.00
6433;BME280;3249;42.690;23.260;2022-09-09T06:33:34;94687.59;;;19.71;100.00
6433;BME280;3249;42.690;23.260;2022-09-09T06:36:01;94680.25;;;19.98;100.00
6433;BME280;3249;42.690;23.260;2022-09-09T06:38:27;94664.06;;;20.01;100.00
6433;BME280;3249;42.690;23.260;2022-09-09T06:40:57;94680.22;;;20.33;100.00
6433;BME280;3249;42.690;23.260;2022-09-09T06:43:24;94664.75;;;20.41;100.00
6433;BME280;3249;42.690;23.260;2022-09-09T06:48:22;94667.31;;;20.56;100.00
6433;BME280;3249;42.690;23.260;2022-09-09T06:50:48;94686.59;;;20.75;100.00
6433;BME280;3249;42.690;23.260;2022-09-09T06:53:18;94692.59;;;20.81;100.00
6433;BME280;3249;42.690;23.260;2022-09-09T06:55:45;94695.72;;;20.83;100.00
6433;BME280;3249;42.690;23.260;2022-09-09T06:58:10;94686.66;;;20.60;100.00
6433;BME280;3249;42.690;23.260;2022-09-09T07:00:36;94699.34;;;21.02;100.00
6433;BME280;3249;42.690;23.260;2022-09-09T07:03:04;94689.84;;;21.11;100.00
6433;BME280;3249;42.690;23.260;2022-09-09T07:05:29;94699.63;;;20.90;100.00
6433;BME280;3249;42.690;23.260;2022-09-09T07:07:54;94694.53;;;20.55;100.00
6433;BME280;3249;42.690;23.260;2022-09-09T07:10:20;94705.22;;;20.69;100.00
6433;BME280;3249;42.690;23.260;2022-09-09T07:12:50;94678.69;;;20.95;100.00
6433;BME280;3249;42.690;23.260;2022-09-09T07:15:16;94678.41;;;20.97;100.00
6433;BME280;3249;42.690;23.260;2022-09-09T07:17:44;94695.53;;;21.23;100.00
6433;BME280;3249;42.690;23.260;2022-09-09T07:20:09;94686.09;;;21.27;100.00
6433;BME280;3249;42.690;23.260;2022-09-09T07:22:35;94681.72;;;21.56;100.00
6433;BME280;3249;42.690;23.260;2022-09-09T07:25:00;94689.66;;;21.79;100.00
6433;BME280;3249;42.690;23.260;2022-09-09T07:27:27;94685.03;;;22.00;100.00
6433;BME280;3249;42.690;23.260;2022-09-09T07:29:53;94690.03;;;22.25;100.00
6433;BME280;3249;42.690;23.260;2022-09-09T07:32:19;94690.88;;;22.44;100.00
6433;BME280;3249;42.690;23.260;2022-09-09T07:34:45;94686.06;;;22.56;100.00
6433;BME280;3249;42.690;23.260;2022-09-09T07:37:12;94667.63;;;22.61;100.00
6433;BME280;3249;42.690;23.260;2022-09-09T07:39:39;94692.69;;;22.72;100.00
6433;BME280;3249;42.690;23.260;2022-09-09T07:42:04;94687.75;;;22.89;100.00
6433;BME280;3249;42.690;23.260;2022-09-09T07:44:30;94686.53;;;22.58;100.00
6433;BME280;3249;42.690;23.260;2022-09-09T07:46:57;94698.16;;;22.76;100.00
6433;BME280;3249;42.690;23.260;2022-09-09T07:49:23;94691.75;;;23.05;100.00
6433;BME280;3249;42.690;23.260;2022-09-09T07:51:52;94698.09;;;23.41;100.00
6433;BME280;3249;42.690;23.260;2022-09-09T07:54:18;94693.13;;;23.40;100.00
6433;BME280;3249;42.690;23.260;2022-09-09T07:56:49;94702.44;;;23.51;100.00
6433;BME280;3249;42.690;23.260;2022-09-09T07:59:15;94682.75;;;22.69;100.00
6433;BME280;3249;42.690;23.260;2022-09-09T08:01:46;94690.78;;;22.78;100.00
6433;BME280;3249;42.690;23.260;2022-09-09T08:04:23;94682.88;;;22.59;100.00
6433;BME280;3249;42.690;23.260;2022-09-09T08:06:53;94688.00;;;22.46;100.00
6433;BME280;3249;42.690;23.260;2022-09-09T08:09:19;94701.06;;;22.74;100.00
6433;BME280;3249;42.690;23.260;2022-09-09T08:11:44;94692.66;;;22.96;100.00
6433;BME280;3249;42.690;23.260;2022-09-09T08:14:11;94690.31;;;23.36;99.50
6433;BME280;3249;42.690;23.260;2022-09-09T08:16:43;94693.59;;;23.79;95.21
6433;BME280;3249;42.690;23.260;2022-09-09T08:19:08;94695.91;;;23.30;96.81
6433;BME280;3249;42.690;23.260;2022-09-09T08:21:36;94696.72;;;23.07;99.87
6433;BME280;3249;42.690;23.260;2022-09-09T08:24:03;94697.16;;;23.14;95.86
6433;BME280;3249;42.690;23.260;2022-09-09T08:26:44;94692.88;;;23.73;91.00
6433;BME280;3249;42.690;23.260;2022-09-09T08:29:11;94689.91;;;24.12;90.01
6433;BME280;3249;42.690;23.260;2022-09-09T08:31:39;94696.00;;;24.53;87.48
6433;BME280;3249;42.690;23.260;2022-09-09T08:34:06;94705.56;;;24.89;83.83
6433;BME280;3249;42.690;23.260;2022-09-09T08:36:34;94691.94;;;24.87;82.58
6433;BME280;3249;42.690;23.260;2022-09-09T08:39:02;94694.47;;;24.52;86.85
6433;BME280;3249;42.690;23.260;2022-09-09T08:52:51;94692.03;;;24.82;85.33
6433;BME280;3249;42.690;23.260;2022-09-09T08:55:25;94699.16;;;24.82;83.67
6433;BME280;3249;42.690;23.260;2022-09-09T08:57:55;94689.91;;;24.12;91.21
6433;BME280;3249;42.690;23.260;2022-09-09T09:00:21;94676.28;;;24.23;88.46
6433;BME280;3249;42.690;23.260;2022-09-09T09:05:58;94675.66;;;24.72;87.92
6433;BME280;3249;42.690;23.260;2022-09-09T09:11:03;94696.66;;;25.39;83.84
6433;BME280;3249;42.690;23.260;2022-09-09T09:13:47;94689.47;;;25.75;81.07
6433;BME280;3249;42.690;23.260;2022-09-09T09:16:34;94692.50;;;25.82;79.25
6433;BME280;3249;42.690;23.260;2022-09-09T09:19:05;94689.94;;;25.55;80.13
6433;BME280;3249;42.690;23.260;2022-09-09T09:21:52;94694.50;;;25.41;81.92
6433;BME280;3249;42.690;23.260;2022-09-09T09:27:21;94683.47;;;25.39;84.38
6433;BME280;3249;42.690;23.260;2022-09-09T09:29:48;94693.44;;;25.42;81.67
6433;BME280;3249;42.690;23.260;2022-09-09T09:32:18;94676.53;;;25.43;80.25
6433;BME280;3249;42.690;23.260;2022-09-09T09:34:51;94690.28;;;25.40;82.80
6433;BME280;3249;42.690;23.260;2022-09-09T09:37:32;94675.72;;;25.07;83.03
6433;BME280;3249;42.690;23.260;2022-09-09T09:40:15;94659.16;;;25.42;79.88
6433;BME280;3249;42.690;23.260;2022-09-09T09:42:54;94670.41;;;25.78;79.19
6433;BME280;3249;42.690;23.260;2022-09-09T09:48:04;94670.00;;;25.27;83.72
6433;BME280;3249;42.690;23.260;2022-09-09T09:50:31;94665.34;;;25.11;82.72
6433;BME280;3249;42.690;23.260;2022-09-09T09:52:59;94663.66;;;25.64;82.03
6433;BME280;3249;42.690;23.260;2022-09-09T09:55:28;94639.91;;;25.64;79.65
6433;BME280;3249;42.690;23.260;2022-09-09T09:58:01;94652.78;;;25.87;79.29
6433;BME280;3249;42.690;23.260;2022-09-09T10:00:27;94647.28;;;25.98;77.07
6433;BME280;3249;42.690;23.260;2022-09-09T10:02:52;94659.56;;;25.80;79.60
6433;BME280;3249;42.690;23.260;2022-09-09T10:05:29;94667.44;;;25.49;79.66
6433;BME280;3249;42.690;23.260;2022-09-09T10:08:11;94671.38;;;25.82;76.82
6433;BME280;3249;42.690;23.260;2022-09-09T10:13:20;94663.06;;;24.82;86.54
6433;BME280;3249;42.690;23.260;2022-09-09T10:18:35;94681.19;;;24.57;87.95
6433;BME280;3249;42.690;23.260;2022-09-09T10:40:31;94691.44;;;24.85;91.17
6433;BME280;3249;42.690;23.260;2022-09-09T10:51:23;94684.31;;;24.86;92.40
6433;BME280;3249;42.690;23.260;2022-09-09T10:56:54;94684.97;;;25.18;90.82
6433;BME280;3249;42.690;23.260;2022-09-09T10:59:29;94671.41;;;24.57;94.04
6433;BME280;3249;42.690;23.260;2022-09-09T11:04:37;94679.50;;;25.28;92.05
6433;BME280;3249;42.690;23.260;2022-09-09T11:07:15;94682.22;;;25.59;90.24
6433;BME280;3249;42.690;23.260;2022-09-09T11:09:50;94683.53;;;25.70;89.26
6433;BME280;3249;42.690;23.260;2022-09-09T11:12:19;94681.56;;;25.75;89.38
6433;BME280;3249;42.690;23.260;2022-09-09T11:14:59;94670.47;;;25.65;90.68
6433;BME280;3249;42.690;23.260;2022-09-09T11:17:35;94672.69;;;25.71;91.20
6433;BME280;3249;42.690;23.260;2022-09-09T11:20:05;94668.09;;;25.77;92.31
6433;BME280;3249;42.690;23.260;2022-09-09T11:22:36;94670.41;;;26.01;91.48
6433;BME280;3249;42.690;23.260;2022-09-09T11:25:38;94660.72;;;26.10;90.30
6433;BME280;3249;42.690;23.260;2022-09-09T11:28:16;94658.81;;;26.02;89.92
6433;BME280;3249;42.690;23.260;2022-09-09T11:33:42;94636.00;;;25.39;94.24
6433;BME280;3249;42.690;23.260;2022-09-09T11:41:35;94620.53;;;26.21;90.77
6433;BME280;3249;42.690;23.260;2022-09-09T11:44:10;94607.28;;;26.04;88.85
6433;BME280;3249;42.690;23.260;2022-09-09T11:46:38;94602.91;;;26.00;90.55
6433;BME280;3249;42.690;23.260;2022-09-09T11:49:05;94577.19;;;26.14;89.68
6433;BME280;3249;42.690;23.260;2022-09-09T11:51:33;94587.25;;;26.03;93.39
6433;BME280;3249;42.690;23.260;2022-09-09T11:54:25;94585.47;;;26.29;89.85
6433;BME280;3249;42.690;23.260;2022-09-09T11:56:49;94599.00;;;26.36;92.11
6433;BME280;3249;42.690;23.260;2022-09-09T11:59:23;94594.94;;;26.22;94.13
6433;BME280;3249;42.690;23.260;2022-09-09T12:02:18;94592.00;;;26.32;94.25
6433;BME280;3249;42.690;23.260;2022-09-09T12:07:28;94572.53;;;25.88;99.30
6433;BME280;3249;42.690;23.260;2022-09-09T12:12:43;94564.31;;;26.21;97.56
6433;BME280;3249;42.690;23.260;2022-09-09T12:17:42;94561.69;;;26.21;95.88
6433;BME280;3249;42.690;23.260;2022-09-09T12:28:32;94555.00;;;26.79;90.15
6433;BME280;3249;42.690;23.260;2022-09-09T12:31:16;94549.41;;;26.81;88.78
6433;BME280;3249;42.690;23.260;2022-09-09T12:33:45;94558.25;;;26.59;88.99
6433;BME280;3249;42.690;23.260;2022-09-09T12:36:18;94556.84;;;26.62;85.87
6433;BME280;3249;42.690;23.260;2022-09-09T12:38:45;94544.34;;;26.37;86.01
6433;BME280;3249;42.690;23.260;2022-09-09T12:43:45;94562.69;;;26.42;87.38
6433;BME280;3249;42.690;23.260;2022-09-09T12:46:21;94564.72;;;26.45;89.33
6433;BME280;3249;42.690;23.260;2022-09-09T12:48:48;94534.06;;;26.27;87.56
6433;BME280;3249;42.690;23.260;2022-09-09T12:51:21;94560.69;;;26.47;87.00
6433;BME280;3249;42.690;23.260;2022-09-09T12:53:51;94541.25;;;26.43;89.09
6433;BME280;3249;42.690;23.260;2022-09-09T12:56:21;94541.63;;;26.67;87.84
6433;BME280;3249;42.690;23.260;2022-09-09T12:58:49;94549.53;;;26.59;87.91
6433;BME280;3249;42.690;23.260;2022-09-09T13:01:26;94539.88;;;26.46;88.63
6433;BME280;3249;42.690;23.260;2022-09-09T13:03:52;94540.31;;;26.48;89.98
6433;BME280;3249;42.690;23.260;2022-09-09T13:06:24;94546.72;;;26.55;89.46
6433;BME280;3249;42.690;23.260;2022-09-09T13:08:55;94531.34;;;26.49;90.05
6433;BME280;3249;42.690;23.260;2022-09-09T13:11:42;94542.84;;;26.53;89.72
6433;BME280;3249;42.690;23.260;2022-09-09T13:14:16;94507.06;;;26.30;89.87
6433;BME280;3249;42.690;23.260;2022-09-09T13:16:55;94517.84;;;26.03;93.01
6433;BME280;3249;42.690;23.260;2022-09-09T13:19:21;94524.41;;;26.22;94.83
6433;BME280;3249;42.690;23.260;2022-09-09T13:21:47;94509.81;;;26.25;93.89
6433;BME280;3249;42.690;23.260;2022-09-09T13:24:33;94504.88;;;26.32;91.95
6433;BME280;3249;42.690;23.260;2022-09-09T13:27:01;94507.34;;;26.28;91.01
6433;BME280;3249;42.690;23.260;2022-09-09T13:29:28;94497.91;;;26.27;89.73
6433;BME280;3249;42.690;23.260;2022-09-09T13:32:04;94497.28;;;26.39;91.19
6433;BME280;3249;42.690;23.260;2022-09-09T13:34:32;94490.13;;;26.48;90.65
6433;BME280;3249;42.690;23.260;2022-09-09T13:37:01;94496.56;;;26.64;89.45
6433;BME280;3249;42.690;23.260;2022-09-09T13:39:28;94493.13;;;26.72;89.38
6433;BME280;3249;42.690;23.260;2022-09-09T13:41:54;94495.00;;;26.80;89.31
6433;BME280;3249;42.690;23.260;2022-09-09T13:44:25;94481.00;;;26.88;87.93
6433;BME280;3249;42.690;23.260;2022-09-09T13:47:02;94496.69;;;27.01;87.73
6433;BME280;3249;42.690;23.260;2022-09-09T13:49:29;94496.09;;;27.04;85.91
6433;BME280;3249;42.690;23.260;2022-09-09T13:52:15;94494.84;;;27.02;84.58
6433;BME280;3249;42.690;23.260;2022-09-09T13:54:42;94483.19;;;26.77;85.88
6433;BME280;3249;42.690;23.260;2022-09-09T13:57:19;94481.78;;;26.80;87.77
6433;BME280;3249;42.690;23.260;2022-09-09T13:59:46;94481.50;;;26.90;85.69
6433;BME280;3249;42.690;23.260;2022-09-09T14:02:12;94487.53;;;27.07;86.75
6433;BME280;3249;42.690;23.260;2022-09-09T14:04:37;94483.97;;;27.03;88.45
6433;BME280;3249;42.690;23.260;2022-09-09T14:07:03;94478.38;;;27.05;87.30
6433;BME280;3249;42.690;23.260;2022-09-09T14:09:28;94486.72;;;27.41;83.78
6433;BME280;3249;42.690;23.260;2022-09-09T14:11:54;94491.22;;;27.49;80.92
6433;BME280;3249;42.690;23.260;2022-09-09T14:14:22;94489.94;;;27.55;80.72
6433;BME280;3249;42.690;23.260;2022-09-09T14:16:48;94485.44;;;27.47;78.42
6433;BME280;3249;42.690;23.260;2022-09-09T14:19:13;94478.13;;;27.44;79.23
6433;BME280;3249;42.690;23.260;2022-09-09T14:21:39;94470.66;;;27.54;78.02
6433;BME280;3249;42.690;23.260;2022-09-09T14:24:04;94472.53;;;27.54;79.92
6433;BME280;3249;42.690;23.260;2022-09-09T14:26:31;94474.69;;;27.52;79.76
6433;BME280;3249;42.690;23.260;2022-09-09T14:28:56;94475.63;;;27.56;79.86
6433;BME280;3249;42.690;23.260;2022-09-09T14:31:25;94481.28;;;27.37;80.52
6433;BME280;3249;42.690;23.260;2022-09-09T14:33:50;94468.53;;;27.39;80.97
6433;BME280;3249;42.690;23.260;2022-09-09T14:36:16;94479.34;;;27.55;79.27
6433;BME280;3249;42.690;23.260;2022-09-09T14:38:41;94469.88;;;27.54;80.85
6433;BME280;3249;42.690;23.260;2022-09-09T14:41:15;94472.22;;;27.47;80.99
6433;BME280;3249;42.690;23.260;2022-09-09T14:43:45;94470.88;;;27.32;83.70
6433;BME280;3249;42.690;23.260;2022-09-09T14:46:13;94465.59;;;27.15;82.84
6433;BME280;3249;42.690;23.260;2022-09-09T14:48:39;94467.78;;;26.96;85.20
6433;BME280;3249;42.690;23.260;2022-09-09T14:51:14;94468.09;;;26.86;85.62
6433;BME280;3249;42.690;23.260;2022-09-09T14:53:41;94466.09;;;26.75;85.76
6433;BME280;3249;42.690;23.260;2022-09-09T14:58:37;94482.09;;;26.61;86.08
6433;BME280;3249;42.690;23.260;2022-09-09T15:01:11;94481.34;;;26.61;86.76
6433;BME280;3249;42.690;23.260;2022-09-09T15:03:37;94491.13;;;26.60;87.24
6433;BME280;3249;42.690;23.260;2022-09-09T15:06:08;94493.75;;;26.60;87.01
6433;BME280;3249;42.690;23.260;2022-09-09T15:08:37;94491.72;;;26.49;87.82
6433;BME280;3249;42.690;23.260;2022-09-09T15:11:04;94482.47;;;26.21;90.64
6433;BME280;3249;42.690;23.260;2022-09-09T15:13:30;94496.38;;;26.43;88.36
6433;BME280;3249;42.690;23.260;2022-09-09T15:15:55;94495.31;;;26.61;87.61
6433;BME280;3249;42.690;23.260;2022-09-09T15:18:21;94497.81;;;26.75;86.80
6433;BME280;3249;42.690;23.260;2022-09-09T15:20:47;94503.72;;;26.89;82.86
6433;BME280;3249;42.690;23.260;2022-09-09T15:23:13;94487.88;;;26.89;83.72
6433;BME280;3249;42.690;23.260;2022-09-09T15:25:49;94495.91;;;27.18;80.17
6433;BME280;3249;42.690;23.260;2022-09-09T15:28:14;94485.94;;;27.32;79.51
6433;BME280;3249;42.690;23.260;2022-09-09T15:30:40;94488.78;;;27.18;80.48
6433;BME280;3249;42.690;23.260;2022-09-09T15:33:08;94481.63;;;27.02;82.47
6433;BME280;3249;42.690;23.260;2022-09-09T15:35:33;94488.78;;;26.76;83.61
6433;BME280;3249;42.690;23.260;2022-09-09T15:38:02;94480.41;;;26.65;84.03